sensor_id;sensor_type;location;lat;lon;timestamp;temperature;humidity
23289;DHT22;11813;50.834;4.280;2023-02-15T00:00:19;4.80;99.90
23289;DHT22;11813;50.834;4.280;2023-02-15T00:02:45;4.80;99.90
23289;DHT22;11813;50.834;4.280;2023-02-15T00:05:10;4.80;99.90
23289;DHT22;11813;50.834;4.280;2023-02-15T00:07:36;4.70;99.90
23289;DHT22;11813;50.834;4.280;2023-02-15T00:10:02;4.70;99.90
23289;DHT22;11813;50.834;4.280;2023-02-15T00:12:28;4.80;99.90
23289;DHT22;11813;50.834;4.280;2023-02-15T00:14:53;4.70;99.90
23289;DHT22;11813;50.834;4.280;2023-02-15T00:17:20;4.70;99.90
23289;DHT22;11813;50.834;4.280;2023-02-15T00:19:45;4.70;99.90
23289;DHT22;11813;50.834;4.280;2023-02-15T00:22:11;4.70;99.90
23289;DHT22;11813;50.834;4.280;2023-02-15T00:24:36;4.60;99.90
23289;DHT22;11813;50.834;4.280;2023-02-15T00:27:02;4.50;99.90
23289;DHT22;11813;50.834;4.280;2023-02-15T00:29:27;4.50;99.90
23289;DHT22;11813;50.834;4.280;2023-02-15T00:31:53;4.40;99.90
23289;DHT22;11813;50.834;4.280;2023-02-15T00:34:21;4.40;99.90
23289;DHT22;11813;50.834;4.280;2023-02-15T00:36:47;4.40;99.90
23289;DHT22;11813;50.834;4.280;2023-02-15T00:39:14;4.40;99.90
23289;DHT22;11813;50.834;4.280;2023-02-15T00:41:40;4.50;99.90
23289;DHT22;11813;50.834;4.280;2023-02-15T00:44:06;4.50;99.90
23289;DHT22;11813;50.834;4.280;2023-02-15T00:46:33;4.40;99.90
23289;DHT22;11813;50.834;4.280;2023-02-15T00:48:58;4.40;99.90
23289;DHT22;11813;50.834;4.280;2023-02-15T00:51:24;4.40;99.90
23289;DHT22;11813;50.834;4.280;2023-02-15T00:53:50;4.40;99.90
23289;DHT22;11813;50.834;4.280;2023-02-15T00:56:15;4.40;99.90
23289;DHT22;11813;50.834;4.280;2023-02-15T00:58:41;4.30;99.90
23289;DHT22;11813;50.834;4.280;2023-02-15T01:01:10;4.30;99.90
23289;DHT22;11813;50.834;4.280;2023-02-15T01:03:36;4.20;99.90
23289;DHT22;11813;50.834;4.280;2023-02-15T01:06:03;4.20;99.90
23289;DHT22;11813;50.834;4.280;2023-02-15T01:08:29;4.20;99.90
23289;DHT22;11813;50.834;4.280;2023-02-15T01:10:54;4.20;99.90
23289;DHT22;11813;50.834;4.280;2023-02-15T01:13:20;4.20;99.90
23289;DHT22;11813;50.834;4.280;2023-02-15T01:15:53;4.20;99.90
23289;DHT22;11813;50.834;4.280;2023-02-15T01:18:19;4.10;99.90
23289;DHT22;11813;50.834;4.280;2023-02-15T01:20:45;4.10;99.90
23289;DHT22;11813;50.834;4.280;2023-02-15T01:23:10;4.00;99.90
23289;DHT22;11813;50.834;4.280;2023-02-15T01:25:36;4.00;99.90
23289;DHT22;11813;50.834;4.280;2023-02-15T01:28:02;4.00;99.90
23289;DHT22;11813;50.834;4.280;2023-02-15T01:30:28;4.00;99.90
23289;DHT22;11813;50.834;4.280;2023-02-15T01:32:54;4.10;99.90
23289;DHT22;11813;50.834;4.280;2023-02-15T01:35:19;4.10;99.90
23289;DHT22;11813;50.834;4.280;2023-02-15T01:37:45;4.10;99.90
23289;DHT22;11813;50.834;4.280;2023-02-15T01:40:15;4.10;99.90
23289;DHT22;11813;50.834;4.280;2023-02-15T01:42:41;4.00;99.90
23289;DHT22;11813;50.834;4.280;2023-02-15T01:45:20;4.00;99.90
23289;DHT22;11813;50.834;4.280;2023-02-15T01:48:04;4.00;99.90
23289;DHT22;11813;50.834;4.280;2023-02-15T01:50:37;3.90;99.90
23289;DHT22;11813;50.834;4.280;2023-02-15T01:53:25;3.90;99.90
23289;DHT22;11813;50.834;4.280;2023-02-15T01:55:57;3.90;99.90
23289;DHT22;11813;50.834;4.280;2023-02-15T01:58:26;3.90;99.90
23289;DHT22;11813;50.834;4.280;2023-02-15T02:00:53;3.80;99.90
23289;DHT22;11813;50.834;4.280;2023-02-15T02:06:04;3.80;99.90
23289;DHT22;11813;50.834;4.280;2023-02-15T02:08:31;3.80;99.90
23289;DHT22;11813;50.834;4.280;2023-02-15T02:10:57;3.80;99.90
23289;DHT22;11813;50.834;4.280;2023-02-15T02:13:22;3.70;99.90
23289;DHT22;11813;50.834;4.280;2023-02-15T02:16:02;3.70;99.90
23289;DHT22;11813;50.834;4.280;2023-02-15T02:22:04;3.70;99.90
23289;DHT22;11813;50.834;4.280;2023-02-15T02:27:26;3.60;99.90
23289;DHT22;11813;50.834;4.280;2023-02-15T02:36:00;3.60;99.90
23289;DHT22;11813;50.834;4.280;2023-02-15T02:38:55;3.50;99.90
23289;DHT22;11813;50.834;4.280;2023-02-15T02:42:01;3.50;99.90
23289;DHT22;11813;50.834;4.280;2023-02-15T02:49:39;3.50;99.90
23289;DHT22;11813;50.834;4.280;2023-02-15T02:52:38;3.40;99.90
23289;DHT22;11813;50.834;4.280;2023-02-15T02:55:08;3.40;99.90
23289;DHT22;11813;50.834;4.280;2023-02-15T02:57:37;3.40;99.90
23289;DHT22;11813;50.834;4.280;2023-02-15T03:00:07;3.40;99.90
23289;DHT22;11813;50.834;4.280;2023-02-15T03:02:39;3.40;99.90
23289;DHT22;11813;50.834;4.280;2023-02-15T03:05:10;3.40;99.90
23289;DHT22;11813;50.834;4.280;2023-02-15T03:07:39;3.40;99.90
23289;DHT22;11813;50.834;4.280;2023-02-15T03:10:06;3.40;99.90
23289;DHT22;11813;50.834;4.280;2023-02-15T03:12:35;3.50;99.90
23289;DHT22;11813;50.834;4.280;2023-02-15T03:18:18;3.40;99.90
23289;DHT22;11813;50.834;4.280;2023-02-15T03:20:46;3.30;99.90
23289;DHT22;11813;50.834;4.280;2023-02-15T03:23:17;3.30;99.90
23289;DHT22;11813;50.834;4.280;2023-02-15T03:25:46;3.30;99.90
23289;DHT22;11813;50.834;4.280;2023-02-15T03:28:17;3.30;99.90
23289;DHT22;11813;50.834;4.280;2023-02-15T03:30:47;3.20;99.90
23289;DHT22;11813;50.834;4.280;2023-02-15T03:33:15;3.20;99.90
23289;DHT22;11813;50.834;4.280;2023-02-15T03:35:59;3.20;99.90
23289;DHT22;11813;50.834;4.280;2023-02-15T03:38:36;3.10;99.90
23289;DHT22;11813;50.834;4.280;2023-02-15T03:41:05;3.10;99.90
23289;DHT22;11813;50.834;4.280;2023-02-15T03:43:44;3.20;99.90
23289;DHT22;11813;50.834;4.280;2023-02-15T03:46:23;3.20;99.90
23289;DHT22;11813;50.834;4.280;2023-02-15T03:48:57;3.20;99.90
23289;DHT22;11813;50.834;4.280;2023-02-15T03:51:29;3.20;99.90
23289;DHT22;11813;50.834;4.280;2023-02-15T03:56:35;3.10;99.90
23289;DHT22;11813;50.834;4.280;2023-02-15T03:59:02;3.10;99.90
23289;DHT22;11813;50.834;4.280;2023-02-15T04:04:34;3.00;99.90
23289;DHT22;11813;50.834;4.280;2023-02-15T04:07:02;3.00;99.90
23289;DHT22;11813;50.834;4.280;2023-02-15T04:09:27;3.00;99.90
23289;DHT22;11813;50.834;4.280;2023-02-15T04:12:12;3.00;99.90
23289;DHT22;11813;50.834;4.280;2023-02-15T04:14:37;3.00;99.90
23289;DHT22;11813;50.834;4.280;2023-02-15T04:17:21;3.00;99.90
23289;DHT22;11813;50.834;4.280;2023-02-15T04:19:47;3.00;99.90
23289;DHT22;11813;50.834;4.280;2023-02-15T04:22:31;3.00;99.90
23289;DHT22;11813;50.834;4.280;2023-02-15T04:25:15;3.00;99.90
23289;DHT22;11813;50.834;4.280;2023-02-15T04:27:49;3.00;99.90
23289;DHT22;11813;50.834;4.280;2023-02-15T04:30:17;3.00;99.90
23289;DHT22;11813;50.834;4.280;2023-02-15T04:32:44;3.00;99.90
23289;DHT22;11813;50.834;4.280;2023-02-15T04:35:10;2.90;99.90
23289;DHT22;11813;50.834;4.280;2023-02-15T04:37:36;2.80;99.90
23289;DHT22;11813;50.834;4.280;2023-02-15T04:40:03;2.80;99.90
23289;DHT22;11813;50.834;4.280;2023-02-15T04:42:29;2.80;99.90
23289;DHT22;11813;50.834;4.280;2023-02-15T04:44:54;2.80;99.90
23289;DHT22;11813;50.834;4.280;2023-02-15T04:47:20;2.80;99.90
23289;DHT22;11813;50.834;4.280;2023-02-15T04:49:46;2.80;99.90
23289;DHT22;11813;50.834;4.280;2023-02-15T04:52:12;2.80;99.90
23289;DHT22;11813;50.834;4.280;2023-02-15T04:54:37;2.80;99.90
23289;DHT22;11813;50.834;4.280;2023-02-15T04:57:03;2.80;99.90
23289;DHT22;11813;50.834;4.280;2023-02-15T04:59:29;2.80;99.90
23289;DHT22;11813;50.834;4.280;2023-02-15T05:01:55;2.80;99.90
23289;DHT22;11813;50.834;4.280;2023-02-15T05:04:20;2.80;99.90
23289;DHT22;11813;50.834;4.280;2023-02-15T05:06:46;2.70;99.90
23289;DHT22;11813;50.834;4.280;2023-02-15T05:09:12;2.80;99.90
23289;DHT22;11813;50.834;4.280;2023-02-15T05:11:37;2.80;99.90
23289;DHT22;11813;50.834;4.280;2023-02-15T05:14:03;2.70;99.90
23289;DHT22;11813;50.834;4.280;2023-02-15T05:16:29;2.70;99.90
23289;DHT22;11813;50.834;4.280;2023-02-15T05:18:55;2.70;99.90
23289;DHT22;11813;50.834;4.280;2023-02-15T05:21:20;2.70;99.90
23289;DHT22;11813;50.834;4.280;2023-02-15T05:23:46;2.70;99.90
23289;DHT22;11813;50.834;4.280;2023-02-15T05:26:14;2.80;99.90
23289;DHT22;11813;50.834;4.280;2023-02-15T05:28:59;2.70;99.90
23289;DHT22;11813;50.834;4.280;2023-02-15T05:31:25;2.70;99.90
23289;DHT22;11813;50.834;4.280;2023-02-15T05:33:50;2.70;99.90
23289;DHT22;11813;50.834;4.280;2023-02-15T05:36:16;2.60;99.90
23289;DHT22;11813;50.834;4.280;2023-02-15T05:38:42;2.60;99.90
23289;DHT22;11813;50.834;4.280;2023-02-15T05:41:09;2.60;99.90
23289;DHT22;11813;50.834;4.280;2023-02-15T05:43:35;2.60;99.90
23289;DHT22;11813;50.834;4.280;2023-02-15T05:46:01;2.60;99.90
23289;DHT22;11813;50.834;4.280;2023-02-15T05:48:27;2.60;99.90
23289;DHT22;11813;50.834;4.280;2023-02-15T05:51:11;2.60;99.90
23289;DHT22;11813;50.834;4.280;2023-02-15T05:53:38;2.60;99.90
23289;DHT22;11813;50.834;4.280;2023-02-15T05:56:06;2.60;99.90
23289;DHT22;11813;50.834;4.280;2023-02-15T05:58:39;2.50;99.90
23289;DHT22;11813;50.834;4.280;2023-02-15T06:01:17;2.50;99.90
23289;DHT22;11813;50.834;4.280;2023-02-15T06:03:44;2.50;99.90
23289;DHT22;11813;50.834;4.280;2023-02-15T06:06:10;2.60;99.90
23289;DHT22;11813;50.834;4.280;2023-02-15T06:08:37;2.50;99.90
23289;DHT22;11813;50.834;4.280;2023-02-15T06:11:03;2.50;99.90
23289;DHT22;11813;50.834;4.280;2023-02-15T06:13:29;2.50;99.90
23289;DHT22;11813;50.834;4.280;2023-02-15T06:15:55;2.50;99.90
23289;DHT22;11813;50.834;4.280;2023-02-15T06:18:20;2.50;99.90
23289;DHT22;11813;50.834;4.280;2023-02-15T06:20:46;2.50;99.90
23289;DHT22;11813;50.834;4.280;2023-02-15T06:23:12;2.60;99.90
23289;DHT22;11813;50.834;4.280;2023-02-15T06:25:38;2.50;99.90
23289;DHT22;11813;50.834;4.280;2023-02-15T06:28:04;2.50;99.90
23289;DHT22;11813;50.834;4.280;2023-02-15T06:30:29;2.50;99.90
23289;DHT22;11813;50.834;4.280;2023-02-15T06:32:55;2.50;99.90
23289;DHT22;11813;50.834;4.280;2023-02-15T06:35:21;2.50;99.90
23289;DHT22;11813;50.834;4.280;2023-02-15T06:37:48;2.50;99.90
23289;DHT22;11813;50.834;4.280;2023-02-15T06:40:14;2.40;99.90
23289;DHT22;11813;50.834;4.280;2023-02-15T06:42:40;2.40;99.90
23289;DHT22;11813;50.834;4.280;2023-02-15T06:45:06;2.40;99.90
23289;DHT22;11813;50.834;4.280;2023-02-15T06:47:32;2.40;99.90
23289;DHT22;11813;50.834;4.280;2023-02-15T06:49:57;2.40;99.90
23289;DHT22;11813;50.834;4.280;2023-02-15T06:52:23;2.30;99.90
23289;DHT22;11813;50.834;4.280;2023-02-15T06:54:49;2.30;99.90
23289;DHT22;11813;50.834;4.280;2023-02-15T06:57:14;2.30;99.90
23289;DHT22;11813;50.834;4.280;2023-02-15T06:59:40;2.20;99.90
23289;DHT22;11813;50.834;4.280;2023-02-15T07:02:06;2.30;99.90
23289;DHT22;11813;50.834;4.280;2023-02-15T07:04:31;2.30;99.90
23289;DHT22;11813;50.834;4.280;2023-02-15T07:06:57;2.40;99.90
23289;DHT22;11813;50.834;4.280;2023-02-15T07:09:23;2.40;99.90
23289;DHT22;11813;50.834;4.280;2023-02-15T07:11:48;2.40;99.90
23289;DHT22;11813;50.834;4.280;2023-02-15T07:14:33;2.40;99.90
23289;DHT22;11813;50.834;4.280;2023-02-15T07:16:58;2.40;99.90
23289;DHT22;11813;50.834;4.280;2023-02-15T07:19:24;2.50;99.90
23289;DHT22;11813;50.834;4.280;2023-02-15T07:21:49;2.50;99.90
23289;DHT22;11813;50.834;4.280;2023-02-15T07:24:16;2.40;99.90
23289;DHT22;11813;50.834;4.280;2023-02-15T07:26:41;2.50;99.90
23289;DHT22;11813;50.834;4.280;2023-02-15T07:29:07;2.50;99.90
23289;DHT22;11813;50.834;4.280;2023-02-15T07:31:32;2.60;99.90
23289;DHT22;11813;50.834;4.280;2023-02-15T07:33:58;2.60;99.90
23289;DHT22;11813;50.834;4.280;2023-02-15T07:36:23;2.70;99.90
23289;DHT22;11813;50.834;4.280;2023-02-15T07:38:49;2.70;99.90
23289;DHT22;11813;50.834;4.280;2023-02-15T07:41:15;2.80;99.90
23289;DHT22;11813;50.834;4.280;2023-02-15T07:43:42;2.80;99.90
23289;DHT22;11813;50.834;4.280;2023-02-15T07:46:14;2.80;99.90
23289;DHT22;11813;50.834;4.280;2023-02-15T07:48:40;2.80;99.90
23289;DHT22;11813;50.834;4.280;2023-02-15T07:51:08;2.90;99.90
23289;DHT22;11813;50.834;4.280;2023-02-15T07:53:35;2.90;99.90
23289;DHT22;11813;50.834;4.280;2023-02-15T07:56:02;2.90;99.90
23289;DHT22;11813;50.834;4.280;2023-02-15T07:58:28;2.80;99.90
23289;DHT22;11813;50.834;4.280;2023-02-15T08:01:13;2.90;99.90
23289;DHT22;11813;50.834;4.280;2023-02-15T08:03:39;2.90;99.90
23289;DHT22;11813;50.834;4.280;2023-02-15T08:06:05;3.00;99.90
23289;DHT22;11813;50.834;4.280;2023-02-15T08:08:30;3.00;99.90
23289;DHT22;11813;50.834;4.280;2023-02-15T08:11:02;3.10;99.90
23289;DHT22;11813;50.834;4.280;2023-02-15T08:13:49;3.20;99.90
23289;DHT22;11813;50.834;4.280;2023-02-15T08:19:04;3.40;99.90
23289;DHT22;11813;50.834;4.280;2023-02-15T08:21:32;3.50;99.90
23289;DHT22;11813;50.834;4.280;2023-02-15T08:23:58;3.60;99.90
23289;DHT22;11813;50.834;4.280;2023-02-15T08:26:26;3.70;99.90
23289;DHT22;11813;50.834;4.280;2023-02-15T08:28:53;3.80;99.90
23289;DHT22;11813;50.834;4.280;2023-02-15T08:31:19;3.90;99.90
23289;DHT22;11813;50.834;4.280;2023-02-15T08:33:46;4.00;99.90
23289;DHT22;11813;50.834;4.280;2023-02-15T08:36:14;4.10;99.90
23289;DHT22;11813;50.834;4.280;2023-02-15T08:38:41;4.30;99.90
23289;DHT22;11813;50.834;4.280;2023-02-15T08:41:15;4.50;99.90
23289;DHT22;11813;50.834;4.280;2023-02-15T08:43:41;4.60;99.90
23289;DHT22;11813;50.834;4.280;2023-02-15T08:46:08;4.80;99.90
23289;DHT22;11813;50.834;4.280;2023-02-15T08:48:34;4.80;99.90
23289;DHT22;11813;50.834;4.280;2023-02-15T08:51:04;4.90;99.90
23289;DHT22;11813;50.834;4.280;2023-02-15T08:53:31;5.10;99.90
23289;DHT22;11813;50.834;4.280;2023-02-15T08:55:57;5.30;99.90
23289;DHT22;11813;50.834;4.280;2023-02-15T08:58:23;5.30;99.90
23289;DHT22;11813;50.834;4.280;2023-02-15T09:00:49;5.40;99.90
23289;DHT22;11813;50.834;4.280;2023-02-15T09:03:15;5.60;99.90
23289;DHT22;11813;50.834;4.280;2023-02-15T09:05:41;5.80;99.90
23289;DHT22;11813;50.834;4.280;2023-02-15T09:08:06;5.90;99.90
23289;DHT22;11813;50.834;4.280;2023-02-15T09:10:32;6.10;99.90
23289;DHT22;11813;50.834;4.280;2023-02-15T09:12:57;6.30;99.90
23289;DHT22;11813;50.834;4.280;2023-02-15T09:15:23;6.40;99.90
23289;DHT22;11813;50.834;4.280;2023-02-15T09:17:48;6.60;99.90
23289;DHT22;11813;50.834;4.280;2023-02-15T09:20:14;6.60;99.90
23289;DHT22;11813;50.834;4.280;2023-02-15T09:22:40;6.60;99.90
23289;DHT22;11813;50.834;4.280;2023-02-15T09:25:05;6.70;99.90
23289;DHT22;11813;50.834;4.280;2023-02-15T09:27:31;6.80;99.90
23289;DHT22;11813;50.834;4.280;2023-02-15T09:29:56;6.90;99.90
23289;DHT22;11813;50.834;4.280;2023-02-15T09:32:22;7.10;99.90
23289;DHT22;11813;50.834;4.280;2023-02-15T09:34:48;7.30;99.90
23289;DHT22;11813;50.834;4.280;2023-02-15T09:37:13;7.40;99.90
23289;DHT22;11813;50.834;4.280;2023-02-15T09:39:41;7.50;99.90
23289;DHT22;11813;50.834;4.280;2023-02-15T09:48:17;8.50;99.90
23289;DHT22;11813;50.834;4.280;2023-02-15T09:54:21;8.80;99.90
23289;DHT22;11813;50.834;4.280;2023-02-15T09:56:55;9.00;99.90
23289;DHT22;11813;50.834;4.280;2023-02-15T10:04:59;9.80;99.90
23289;DHT22;11813;50.834;4.280;2023-02-15T10:07:53;10.00;99.90
23289;DHT22;11813;50.834;4.280;2023-02-15T10:13:41;10.50;99.90
23289;DHT22;11813;50.834;4.280;2023-02-15T10:19:34;10.60;99.90
23289;DHT22;11813;50.834;4.280;2023-02-15T10:25:08;10.80;99.90
23289;DHT22;11813;50.834;4.280;2023-02-15T10:27:45;10.90;99.90
23289;DHT22;11813;50.834;4.280;2023-02-15T10:30:14;10.90;99.90
23289;DHT22;11813;50.834;4.280;2023-02-15T10:33:03;11.00;99.90
23289;DHT22;11813;50.834;4.280;2023-02-15T10:38:39;11.20;99.90
23289;DHT22;11813;50.834;4.280;2023-02-15T10:46:33;11.80;99.90
23289;DHT22;11813;50.834;4.280;2023-02-15T10:55:47;11.90;99.90
23289;DHT22;11813;50.834;4.280;2023-02-15T10:57:59;11.90;99.90
23289;DHT22;11813;50.834;4.280;2023-02-15T11:00:32;12.00;99.90
23289;DHT22;11813;50.834;4.280;2023-02-15T11:06:11;12.40;99.90
23289;DHT22;11813;50.834;4.280;2023-02-15T11:08:44;12.40;99.90
23289;DHT22;11813;50.834;4.280;2023-02-15T11:11:15;12.50;99.90
23289;DHT22;11813;50.834;4.280;2023-02-15T11:13:48;12.40;99.90
23289;DHT22;11813;50.834;4.280;2023-02-15T11:16:25;12.40;99.90
23289;DHT22;11813;50.834;4.280;2023-02-15T11:19:05;12.50;99.90
23289;DHT22;11813;50.834;4.280;2023-02-15T11:21:34;12.50;99.90
23289;DHT22;11813;50.834;4.280;2023-02-15T11:24:12;12.30;99.90
23289;DHT22;11813;50.834;4.280;2023-02-15T11:27:04;12.40;99.90
23289;DHT22;11813;50.834;4.280;2023-02-15T11:32:44;12.70;99.90
23289;DHT22;11813;50.834;4.280;2023-02-15T11:37:41;13.10;99.90
23289;DHT22;11813;50.834;4.280;2023-02-15T11:42:51;13.60;99.90
23289;DHT22;11813;50.834;4.280;2023-02-15T11:45:28;13.80;99.90
23289;DHT22;11813;50.834;4.280;2023-02-15T11:47:55;13.90;99.90
23289;DHT22;11813;50.834;4.280;2023-02-15T11:50:23;13.90;99.90
23289;DHT22;11813;50.834;4.280;2023-02-15T11:52:51;14.00;99.90
23289;DHT22;11813;50.834;4.280;2023-02-15T11:55:21;14.00;99.90
23289;DHT22;11813;50.834;4.280;2023-02-15T12:00:32;13.80;99.90
23289;DHT22;11813;50.834;4.280;2023-02-15T12:03:04;13.80;99.90
23289;DHT22;11813;50.834;4.280;2023-02-15T12:05:34;13.80;99.90
23289;DHT22;11813;50.834;4.280;2023-02-15T12:08:08;13.80;99.90
23289;DHT22;11813;50.834;4.280;2023-02-15T12:10:40;13.80;99.90
23289;DHT22;11813;50.834;4.280;2023-02-15T12:15:41;13.60;99.90
23289;DHT22;11813;50.834;4.280;2023-02-15T12:19:00;13.70;99.90
23289;DHT22;11813;50.834;4.280;2023-02-15T12:21:11;14.00;99.90
23289;DHT22;11813;50.834;4.280;2023-02-15T12:23:51;14.20;99.90
23289;DHT22;11813;50.834;4.280;2023-02-15T12:26:31;14.10;99.90
23289;DHT22;11813;50.834;4.280;2023-02-15T12:29:25;14.20;99.90
23289;DHT22;11813;50.834;4.280;2023-02-15T12:31:52;14.50;99.90
23289;DHT22;11813;50.834;4.280;2023-02-15T12:34:22;14.80;99.90
23289;DHT22;11813;50.834;4.280;2023-02-15T12:37:00;15.00;99.90
23289;DHT22;11813;50.834;4.280;2023-02-15T12:39:31;15.00;99.90
23289;DHT22;11813;50.834;4.280;2023-02-15T12:42:14;15.40;99.90
23289;DHT22;11813;50.834;4.280;2023-02-15T12:44:57;15.60;99.90
23289;DHT22;11813;50.834;4.280;2023-02-15T12:47:23;15.70;99.90
23289;DHT22;11813;50.834;4.280;2023-02-15T12:50:23;15.70;99.90
23289;DHT22;11813;50.834;4.280;2023-02-15T12:53:19;15.90;99.90
23289;DHT22;11813;50.834;4.280;2023-02-15T12:55:55;16.20;99.90
23289;DHT22;11813;50.834;4.280;2023-02-15T12:58:24;16.50;99.90
23289;DHT22;11813;50.834;4.280;2023-02-15T13:04:01;17.00;99.90
23289;DHT22;11813;50.834;4.280;2023-02-15T13:06:31;17.10;99.90
23289;DHT22;11813;50.834;4.280;2023-02-15T13:09:05;17.00;99.90
23289;DHT22;11813;50.834;4.280;2023-02-15T13:11:32;16.90;99.90
23289;DHT22;11813;50.834;4.280;2023-02-15T13:14:16;16.70;99.90
23289;DHT22;11813;50.834;4.280;2023-02-15T13:16:44;16.50;99.90
23289;DHT22;11813;50.834;4.280;2023-02-15T13:19:29;16.40;99.90
23289;DHT22;11813;50.834;4.280;2023-02-15T13:21:57;16.40;99.90
23289;DHT22;11813;50.834;4.280;2023-02-15T13:24:56;16.30;99.90
23289;DHT22;11813;50.834;4.280;2023-02-15T13:27:28;16.20;99.90
23289;DHT22;11813;50.834;4.280;2023-02-15T13:29:59;16.30;99.90
23289;DHT22;11813;50.834;4.280;2023-02-15T13:32:34;16.70;99.90
23289;DHT22;11813;50.834;4.280;2023-02-15T13:35:03;16.50;99.90
23289;DHT22;11813;50.834;4.280;2023-02-15T13:40:48;16.50;99.90
23289;DHT22;11813;50.834;4.280;2023-02-15T13:43:44;16.50;99.90
23289;DHT22;11813;50.834;4.280;2023-02-15T13:46:34;16.30;99.90
23289;DHT22;11813;50.834;4.280;2023-02-15T13:49:32;16.30;99.90
23289;DHT22;11813;50.834;4.280;2023-02-15T13:57:34;16.60;99.90
23289;DHT22;11813;50.834;4.280;2023-02-15T14:08:58;16.90;99.90
23289;DHT22;11813;50.834;4.280;2023-02-15T14:14:48;16.90;99.90
23289;DHT22;11813;50.834;4.280;2023-02-15T14:17:59;17.10;99.90
23289;DHT22;11813;50.834;4.280;2023-02-15T14:23:07;17.50;99.90
23289;DHT22;11813;50.834;4.280;2023-02-15T14:25:47;17.30;99.90
23289;DHT22;11813;50.834;4.280;2023-02-15T14:31:09;17.00;99.90
23289;DHT22;11813;50.834;4.280;2023-02-15T14:33:43;16.90;99.90
23289;DHT22;11813;50.834;4.280;2023-02-15T14:36:16;16.90;99.90
23289;DHT22;11813;50.834;4.280;2023-02-15T14:42:30;16.50;99.90
23289;DHT22;11813;50.834;4.280;2023-02-15T14:47:44;16.40;99.90
23289;DHT22;11813;50.834;4.280;2023-02-15T14:58:55;16.60;99.90
23289;DHT22;11813;50.834;4.280;2023-02-15T15:01:32;16.50;99.90
23289;DHT22;11813;50.834;4.280;2023-02-15T15:04:10;16.30;99.90
23289;DHT22;11813;50.834;4.280;2023-02-15T15:06:41;16.20;99.90
23289;DHT22;11813;50.834;4.280;2023-02-15T15:09:11;16.20;99.90
23289;DHT22;11813;50.834;4.280;2023-02-15T15:11:46;16.30;99.90
23289;DHT22;11813;50.834;4.280;2023-02-15T15:14:37;16.50;99.90
23289;DHT22;11813;50.834;4.280;2023-02-15T15:17:05;16.60;99.90
23289;DHT22;11813;50.834;4.280;2023-02-15T15:22:27;16.70;99.90
23289;DHT22;11813;50.834;4.280;2023-02-15T15:25:10;16.80;99.90
23289;DHT22;11813;50.834;4.280;2023-02-15T15:27:49;16.90;99.90
23289;DHT22;11813;50.834;4.280;2023-02-15T15:38:07;16.70;99.90
23289;DHT22;11813;50.834;4.280;2023-02-15T15:41:00;16.50;99.90
23289;DHT22;11813;50.834;4.280;2023-02-15T15:44:08;16.40;99.90
23289;DHT22;11813;50.834;4.280;2023-02-15T15:49:02;16.00;99.90
23289;DHT22;11813;50.834;4.280;2023-02-15T15:51:34;16.10;99.90
23289;DHT22;11813;50.834;4.280;2023-02-15T15:54:01;16.10;99.90
23289;DHT22;11813;50.834;4.280;2023-02-15T15:56:34;15.90;99.90
23289;DHT22;11813;50.834;4.280;2023-02-15T15:59:05;15.70;99.90
23289;DHT22;11813;50.834;4.280;2023-02-15T16:01:39;15.80;99.90
23289;DHT22;11813;50.834;4.280;2023-02-15T16:04:12;15.50;99.90
23289;DHT22;11813;50.834;4.280;2023-02-15T16:06:39;15.40;99.90
23289;DHT22;11813;50.834;4.280;2023-02-15T16:09:27;15.40;99.90
23289;DHT22;11813;50.834;4.280;2023-02-15T16:12:01;15.20;99.90
23289;DHT22;11813;50.834;4.280;2023-02-15T16:14:35;15.20;99.90
23289;DHT22;11813;50.834;4.280;2023-02-15T16:17:05;15.10;99.90
23289;DHT22;11813;50.834;4.280;2023-02-15T16:19:34;15.00;99.90
23289;DHT22;11813;50.834;4.280;2023-02-15T16:22:02;14.80;99.90
23289;DHT22;11813;50.834;4.280;2023-02-15T16:24:37;14.60;99.90
23289;DHT22;11813;50.834;4.280;2023-02-15T16:29:34;14.30;99.90
23289;DHT22;11813;50.834;4.280;2023-02-15T16:32:04;14.30;99.90
23289;DHT22;11813;50.834;4.280;2023-02-15T16:34:31;14.20;99.90
23289;DHT22;11813;50.834;4.280;2023-02-15T16:37:16;14.20;99.90
23289;DHT22;11813;50.834;4.280;2023-02-15T16:39:43;14.20;99.90
23289;DHT22;11813;50.834;4.280;2023-02-15T16:42:11;14.20;99.90
23289;DHT22;11813;50.834;4.280;2023-02-15T16:44:37;14.20;99.90
23289;DHT22;11813;50.834;4.280;2023-02-15T16:47:03;14.00;99.90
23289;DHT22;11813;50.834;4.280;2023-02-15T16:49:29;13.90;99.90
23289;DHT22;11813;50.834;4.280;2023-02-15T16:52:06;13.90;99.90
23289;DHT22;11813;50.834;4.280;2023-02-15T16:54:34;13.70;99.90
23289;DHT22;11813;50.834;4.280;2023-02-15T16:57:01;13.70;99.90
23289;DHT22;11813;50.834;4.280;2023-02-15T17:01:56;13.50;99.90
23289;DHT22;11813;50.834;4.280;2023-02-15T17:07:20;13.20;99.90
23289;DHT22;11813;50.834;4.280;2023-02-15T17:09:51;12.90;99.90
23289;DHT22;11813;50.834;4.280;2023-02-15T17:12:43;12.70;99.90
23289;DHT22;11813;50.834;4.280;2023-02-15T17:17:56;12.50;99.90
23289;DHT22;11813;50.834;4.280;2023-02-15T17:20:23;12.50;99.90
23289;DHT22;11813;50.834;4.280;2023-02-15T17:22:49;12.40;99.90
23289;DHT22;11813;50.834;4.280;2023-02-15T17:25:21;12.40;99.90
23289;DHT22;11813;50.834;4.280;2023-02-15T17:27:53;12.30;99.90
23289;DHT22;11813;50.834;4.280;2023-02-15T17:30:34;12.10;99.90
23289;DHT22;11813;50.834;4.280;2023-02-15T17:33:04;12.20;99.90
23289;DHT22;11813;50.834;4.280;2023-02-15T17:35:43;12.20;99.90
23289;DHT22;11813;50.834;4.280;2023-02-15T17:38:19;12.00;99.90
23289;DHT22;11813;50.834;4.280;2023-02-15T17:40:45;11.90;99.90
23289;DHT22;11813;50.834;4.280;2023-02-15T17:43:11;11.80;99.90
23289;DHT22;11813;50.834;4.280;2023-02-15T17:45:42;11.50;99.90
23289;DHT22;11813;50.834;4.280;2023-02-15T17:48:24;11.40;99.90
23289;DHT22;11813;50.834;4.280;2023-02-15T17:50:56;11.40;99.90
23289;DHT22;11813;50.834;4.280;2023-02-15T17:53:23;11.10;99.90
23289;DHT22;11813;50.834;4.280;2023-02-15T17:55:50;11.10;99.90
23289;DHT22;11813;50.834;4.280;2023-02-15T17:58:17;11.20;99.90
23289;DHT22;11813;50.834;4.280;2023-02-15T18:00:49;11.20;99.90
23289;DHT22;11813;50.834;4.280;2023-02-15T18:03:40;11.20;99.90
23289;DHT22;11813;50.834;4.280;2023-02-15T18:06:25;11.20;99.90
23289;DHT22;11813;50.834;4.280;2023-02-15T18:09:14;11.20;99.90
23289;DHT22;11813;50.834;4.280;2023-02-15T18:11:58;11.10;99.90
23289;DHT22;11813;50.834;4.280;2023-02-15T18:14:24;11.10;99.90
23289;DHT22;11813;50.834;4.280;2023-02-15T18:16:50;10.90;99.90
23289;DHT22;11813;50.834;4.280;2023-02-15T18:19:21;10.70;99.90
23289;DHT22;11813;50.834;4.280;2023-02-15T18:21:47;10.60;99.90
23289;DHT22;11813;50.834;4.280;2023-02-15T18:24:18;10.60;99.90
23289;DHT22;11813;50.834;4.280;2023-02-15T18:26:44;10.50;99.90
23289;DHT22;11813;50.834;4.280;2023-02-15T18:29:10;10.30;99.90
23289;DHT22;11813;50.834;4.280;2023-02-15T18:31:36;10.30;99.90
23289;DHT22;11813;50.834;4.280;2023-02-15T18:34:02;10.30;99.90
23289;DHT22;11813;50.834;4.280;2023-02-15T18:36:31;10.30;99.90
23289;DHT22;11813;50.834;4.280;2023-02-15T18:38:58;10.40;99.90